sensor_id;sensor_type;location;lat;lon;timestamp;pressure;altitude;pressure_sealevel;temperature;humidity
53719;BME280;39616;48.872;9.390;2024-03-25T00:01:12;97594.03;;;4.53;100.00
53719;BME280;39616;48.872;9.390;2024-03-25T00:03:42;97600.75;;;4.50;100.00
53719;BME280;39616;48.872;9.390;2024-03-25T00:06:12;97595.09;;;4.57;100.00
53719;BME280;39616;48.872;9.390;2024-03-25T00:08:43;97603.13;;;4.57;100.00
53719;BME280;39616;48.872;9.390;2024-03-25T00:11:13;97599.91;;;4.55;100.00
53719;BME280;39616;48.872;9.390;2024-03-25T00:13:43;97599.38;;;4.58;100.00
53719;BME280;39616;48.872;9.390;2024-03-25T00:16:13;97606.63;;;4.57;100.00
53719;BME280;39616;48.872;9.390;2024-03-25T00:18:44;97602.09;;;4.53;100.00
53719;BME280;39616;48.872;9.390;2024-03-25T00:21:15;97598.03;;;4.55;100.00
53719;BME280;39616;48.872;9.390;2024-03-25T00:23:45;97593.19;;;4.52;100.00
53719;BME280;39616;48.872;9.390;2024-03-25T00:26:15;97597.78;;;4.57;100.00
53719;BME280;39616;48.872;9.390;2024-03-25T00:28:46;97594.84;;;4.48;100.00
53719;BME280;39616;48.872;9.390;2024-03-25T00:31:16;97593.19;;;4.52;100.00
53719;BME280;39616;48.872;9.390;2024-03-25T00:33:46;97597.25;;;4.50;100.00
53719;BME280;39616;48.872;9.390;2024-03-25T00:36:17;97600.19;;;4.48;100.00
53719;BME280;39616;48.872;9.390;2024-03-25T00:38:47;97596.72;;;4.53;100.00
53719;BME280;39616;48.872;9.390;2024-03-25T00:41:18;97596.47;;;4.49;100.00
53719;BME280;39616;48.872;9.390;2024-03-25T00:43:48;97598.59;;;4.47;100.00
53719;BME280;39616;48.872;9.390;2024-03-25T00:46:18;97593.78;;;4.44;100.00
53719;BME280;39616;48.872;9.390;2024-03-25T00:48:48;97597.53;;;4.43;100.00
53719;BME280;39616;48.872;9.390;2024-03-25T00:51:19;97599.16;;;4.44;100.00
53719;BME280;39616;48.872;9.390;2024-03-25T00:53:49;97590.56;;;4.47;100.00
53719;BME280;39616;48.872;9.390;2024-03-25T00:56:19;97600.19;;;4.48;100.00
53719;BME280;39616;48.872;9.390;2024-03-25T00:58:50;97597.53;;;4.48;100.00
53719;BME280;39616;48.872;9.390;2024-03-25T01:01:20;97596.94;;;4.56;100.00
53719;BME280;39616;48.872;9.390;2024-03-25T01:03:50;97599.13;;;4.54;100.00
53719;BME280;39616;48.872;9.390;2024-03-25T01:06:21;97600.47;;;4.52;100.00
53719;BME280;39616;48.872;9.390;2024-03-25T01:08:51;97595.88;;;4.57;100.00
53719;BME280;39616;48.872;9.390;2024-03-25T01:11:21;97591.56;;;4.62;100.00
53719;BME280;39616;48.872;9.390;2024-03-25T01:13:52;97585.91;;;4.68;100.00
53719;BME280;39616;48.872;9.390;2024-03-25T01:16:22;97588.34;;;4.59;100.00
53719;BME280;39616;48.872;9.390;2024-03-25T01:18:52;97583.50;;;4.62;100.00
53719;BME280;39616;48.872;9.390;2024-03-25T01:21:23;97581.34;;;4.64;100.00
53719;BME280;39616;48.872;9.390;2024-03-25T01:23:53;97577.06;;;4.63;100.00
53719;BME280;39616;48.872;9.390;2024-03-25T01:26:23;97584.84;;;4.64;100.00
53719;BME280;39616;48.872;9.390;2024-03-25T01:28:54;97584.03;;;4.64;100.00
53719;BME280;39616;48.872;9.390;2024-03-25T01:31:24;97585.09;;;4.63;100.00
53719;BME280;39616;48.872;9.390;2024-03-25T01:33:54;97580.03;;;4.61;100.00
53719;BME280;39616;48.872;9.390;2024-03-25T01:36:25;97574.91;;;4.59;100.00
53719;BME280;39616;48.872;9.390;2024-03-25T01:38:57;97581.88;;;4.66;100.00
53719;BME280;39616;48.872;9.390;2024-03-25T01:41:28;97584.03;;;4.64;100.00
53719;BME280;39616;48.872;9.390;2024-03-25T01:43:58;97578.94;;;4.62;100.00
53719;BME280;39616;48.872;9.390;2024-03-25T01:46:29;97583.50;;;4.62;100.00
53719;BME280;39616;48.872;9.390;2024-03-25T01:48:59;97577.06;;;4.68;100.00
53719;BME280;39616;48.872;9.390;2024-03-25T01:51:30;97580.03;;;4.61;100.00
53719;BME280;39616;48.872;9.390;2024-03-25T01:54:01;97585.66;;;4.59;100.00
53719;BME280;39616;48.872;9.390;2024-03-25T01:56:33;97587.81;;;4.57;100.00
53719;BME280;39616;48.872;9.390;2024-03-25T01:59:03;97588.91;;;4.51;100.00
53719;BME280;39616;48.872;9.390;2024-03-25T02:01:34;97585.97;;;4.48;100.00
53719;BME280;39616;48.872;9.390;2024-03-25T02:04:04;97587.31;;;4.50;100.00
53719;BME280;39616;48.872;9.390;2024-03-25T02:06:35;97586.78;;;4.53;100.00
53719;BME280;39616;48.872;9.390;2024-03-25T02:09:07;97585.16;;;4.52;100.00
53719;BME280;39616;48.872;9.390;2024-03-25T02:11:37;97583.50;;;4.56;100.00
53719;BME280;39616;48.872;9.390;2024-03-25T02:14:08;97583.00;;;4.54;100.00
53719;BME280;39616;48.872;9.390;2024-03-25T02:16:39;97581.91;;;4.55;100.00
53719;BME280;39616;48.872;9.390;2024-03-25T02:19:11;97586.78;;;4.53;100.00
53719;BME280;39616;48.872;9.390;2024-03-25T02:21:43;97579.53;;;4.49;100.00
53719;BME280;39616;48.872;9.390;2024-03-25T02:24:13;97577.09;;;4.52;100.00
53719;BME280;39616;48.872;9.390;2024-03-25T02:26:45;97575.78;;;4.50;100.00
53719;BME280;39616;48.872;9.390;2024-03-25T02:29:16;97587.06;;;4.47;100.00
53719;BME280;39616;48.872;9.390;2024-03-25T02:31:46;97580.34;;;4.44;100.00
53719;BME280;39616;48.872;9.390;2024-03-25T02:34:17;97575.78;;;4.45;100.00
53719;BME280;39616;48.872;9.390;2024-03-25T02:36:47;97571.75;;;4.47;100.00
53719;BME280;39616;48.872;9.390;2024-03-25T02:39:19;97572.00;;;4.51;100.00
53719;BME280;39616;48.872;9.390;2024-03-25T02:41:49;97581.41;;;4.48;100.00
53719;BME280;39616;48.872;9.390;2024-03-25T02:44:20;97586.78;;;4.48;100.00
53719;BME280;39616;48.872;9.390;2024-03-25T02:46:52;97581.16;;;4.50;100.00
53719;BME280;39616;48.872;9.390;2024-03-25T02:49:22;97589.47;;;4.48;100.00
53719;BME280;39616;48.872;9.390;2024-03-25T02:51:52;97585.72;;;4.49;100.00
53719;BME280;39616;48.872;9.390;2024-03-25T02:54:23;97587.88;;;4.47;100.00
53719;BME280;39616;48.872;9.390;2024-03-25T02:56:53;97578.47;;;4.45;100.00
53719;BME280;39616;48.872;9.390;2024-03-25T02:59:23;97586.25;;;4.46;100.00
53719;BME280;39616;48.872;9.390;2024-03-25T03:01:54;97580.59;;;4.53;100.00
53719;BME280;39616;48.872;9.390;2024-03-25T03:04:24;97581.66;;;4.57;100.00
53719;BME280;39616;48.872;9.390;2024-03-25T03:06:54;97575.25;;;4.53;100.00
53719;BME280;39616;48.872;9.390;2024-03-25T03:09:25;97578.47;;;4.50;100.00
53719;BME280;39616;48.872;9.390;2024-03-25T03:11:55;97578.97;;;4.52;100.00
53719;BME280;39616;48.872;9.390;2024-03-25T03:14:25;97582.47;;;4.52;100.00
53719;BME280;39616;48.872;9.390;2024-03-25T03:16:56;97583.50;;;4.56;100.00
53719;BME280;39616;48.872;9.390;2024-03-25T03:19:28;97577.38;;;4.51;100.00
53719;BME280;39616;48.872;9.390;2024-03-25T03:21:59;97574.41;;;4.52;100.00
53719;BME280;39616;48.872;9.390;2024-03-25T03:24:29;97568.53;;;4.50;100.00
53719;BME280;39616;48.872;9.390;2024-03-25T03:27:00;97557.25;;;4.48;100.00
53719;BME280;39616;48.872;9.390;2024-03-25T03:29:31;97566.94;;;4.44;100.00
53719;BME280;39616;48.872;9.390;2024-03-25T03:32:01;97564.28;;;4.39;100.00
53719;BME280;39616;48.872;9.390;2024-03-25T03:34:31;97563.75;;;4.37;100.00
53719;BME280;39616;48.872;9.390;2024-03-25T03:37:02;97561.34;;;4.35;100.00
53719;BME280;39616;48.872;9.390;2024-03-25T03:39:32;97564.84;;;4.31;100.00
53719;BME280;39616;48.872;9.390;2024-03-25T03:42:02;97554.66;;;4.28;100.00
53719;BME280;39616;48.872;9.390;2024-03-25T03:44:33;97557.88;;;4.25;100.00
53719;BME280;39616;48.872;9.390;2024-03-25T03:47:04;97557.88;;;4.20;100.00
53719;BME280;39616;48.872;9.390;2024-03-25T03:49:34;97558.47;;;4.17;100.00
53719;BME280;39616;48.872;9.390;2024-03-25T03:52:05;97559.00;;;4.08;100.00
53719;BME280;39616;48.872;9.390;2024-03-25T03:54:35;97559.03;;;4.03;100.00
53719;BME280;39616;48.872;9.390;2024-03-25T03:57:05;97562.00;;;4.02;100.00
53719;BME280;39616;48.872;9.390;2024-03-25T03:59:35;97563.31;;;3.99;100.00
53719;BME280;39616;48.872;9.390;2024-03-25T04:02:07;97564.94;;;3.95;100.00
53719;BME280;39616;48.872;9.390;2024-03-25T04:04:38;97566.81;;;3.90;100.00
53719;BME280;39616;48.872;9.390;2024-03-25T04:07:08;97574.09;;;3.84;100.00
53719;BME280;39616;48.872;9.390;2024-03-25T04:09:39;97571.94;;;3.81;100.00
53719;BME280;39616;48.872;9.390;2024-03-25T04:12:09;97579.19;;;3.80;100.00
53719;BME280;39616;48.872;9.390;2024-03-25T04:14:40;97579.19;;;3.80;100.00
53719;BME280;39616;48.872;9.390;2024-03-25T04:17:10;97579.72;;;3.77;100.00
53719;BME280;39616;48.872;9.390;2024-03-25T04:19:42;97584.81;;;3.74;100.00
53719;BME280;39616;48.872;9.390;2024-03-25T04:22:12;97577.59;;;3.69;100.00
53719;BME280;39616;48.872;9.390;2024-03-25T04:24:43;97584.56;;;3.70;100.00
53719;BME280;39616;48.872;9.390;2024-03-25T04:27:13;97584.84;;;3.69;100.00
53719;BME280;39616;48.872;9.390;2024-03-25T04:29:44;97582.16;;;3.69;100.00
53719;BME280;39616;48.872;9.390;2024-03-25T04:32:14;97575.44;;;3.71;100.00
53719;BME280;39616;48.872;9.390;2024-03-25T04:34:44;97578.91;;;3.72;100.00
53719;BME280;39616;48.872;9.390;2024-03-25T04:37:15;97567.66;;;3.75;100.00
53719;BME280;39616;48.872;9.390;2024-03-25T04:39:45;97569.25;;;3.81;100.00
53719;BME280;39616;48.872;9.390;2024-03-25T04:42:15;97575.19;;;3.83;100.00
53719;BME280;39616;48.872;9.390;2024-03-25T04:44:46;97568.19;;;3.87;100.00
53719;BME280;39616;48.872;9.390;2024-03-25T04:47:16;97572.47;;;3.88;100.00
53719;BME280;39616;48.872;9.390;2024-03-25T04:49:47;97571.94;;;3.91;100.00
53719;BME280;39616;48.872;9.390;2024-03-25T04:52:17;97567.88;;;3.94;100.00
53719;BME280;39616;48.872;9.390;2024-03-25T04:54:48;97577.03;;;3.98;100.00
53719;BME280;39616;48.872;9.390;2024-03-25T04:57:19;97585.88;;;3.98;100.00
53719;BME280;39616;48.872;9.390;2024-03-25T04:59:49;97583.69;;;4.00;100.00
53719;BME280;39616;48.872;9.390;2024-03-25T05:02:19;97580.75;;;4.02;100.00
53719;BME280;39616;48.872;9.390;2024-03-25T05:04:50;97586.94;;;4.02;100.00
53719;BME280;39616;48.872;9.390;2024-03-25T05:07:20;97591.75;;;4.05;100.00
53719;BME280;39616;48.872;9.390;2024-03-25T05:09:50;97583.97;;;4.04;100.00
53719;BME280;39616;48.872;9.390;2024-03-25T05:12:21;97591.47;;;4.07;100.00
53719;BME280;39616;48.872;9.390;2024-03-25T05:14:51;97590.13;;;4.09;100.00
53719;BME280;39616;48.872;9.390;2024-03-25T05:17:22;97593.34;;;4.17;100.00
53719;BME280;39616;48.872;9.390;2024-03-25T05:19:52;97593.34;;;4.17;100.00
53719;BME280;39616;48.872;9.390;2024-03-25T05:22:23;97589.03;;;4.21;100.00
53719;BME280;39616;48.872;9.390;2024-03-25T05:24:53;97597.63;;;4.18;100.00
53719;BME280;39616;48.872;9.390;2024-03-25T05:27:23;97601.38;;;4.22;100.00
53719;BME280;39616;48.872;9.390;2024-03-25T05:29:54;97605.66;;;4.18;100.00
53719;BME280;39616;48.872;9.390;2024-03-25T05:32:24;97602.72;;;4.19;100.00
53719;BME280;39616;48.872;9.390;2024-03-25T05:34:55;97609.41;;;4.22;100.00
53719;BME280;39616;48.872;9.390;2024-03-25T05:37:25;97608.34;;;4.23;100.00
53719;BME280;39616;48.872;9.390;2024-03-25T05:39:56;97609.13;;;4.28;100.00
53719;BME280;39616;48.872;9.390;2024-03-25T05:42:26;97611.00;;;4.33;100.00
53719;BME280;39616;48.872;9.390;2024-03-25T05:44:56;97601.06;;;4.39;100.00
53719;BME280;39616;48.872;9.390;2024-03-25T05:47:27;97599.69;;;4.41;100.00
53719;BME280;39616;48.872;9.390;2024-03-25T05:49:57;97604.50;;;4.44;100.00
53719;BME280;39616;48.872;9.390;2024-03-25T05:52:28;97608.00;;;4.50;100.00
53719;BME280;39616;48.872;9.390;2024-03-25T05:54:58;97606.88;;;4.56;100.00
53719;BME280;39616;48.872;9.390;2024-03-25T05:57:29;97606.38;;;4.54;100.00
53719;BME280;39616;48.872;9.390;2024-03-25T05:59:59;97611.72;;;4.59;100.00
53719;BME280;39616;48.872;9.390;2024-03-25T06:02:29;97608.44;;;4.67;100.00
53719;BME280;39616;48.872;9.390;2024-03-25T06:05:00;97611.66;;;4.69;100.00
53719;BME280;39616;48.872;9.390;2024-03-25T06:07:30;97612.72;;;4.73;100.00
53719;BME280;39616;48.872;9.390;2024-03-25T06:10:00;97609.00;;;4.69;100.00
53719;BME280;39616;48.872;9.390;2024-03-25T06:12:31;97614.88;;;4.76;100.00
53719;BME280;39616;48.872;9.390;2024-03-25T06:15:01;97618.56;;;4.91;100.00
53719;BME280;39616;48.872;9.390;2024-03-25T06:17:32;97611.88;;;4.83;100.00
53719;BME280;39616;48.872;9.390;2024-03-25T06:20:02;97612.63;;;4.94;100.00
53719;BME280;39616;48.872;9.390;2024-03-25T06:22:34;97616.69;;;4.91;100.00
53719;BME280;39616;48.872;9.390;2024-03-25T06:25:05;97615.06;;;4.90;100.00
53719;BME280;39616;48.872;9.390;2024-03-25T06:27:35;97608.56;;;4.96;100.00
53719;BME280;39616;48.872;9.390;2024-03-25T06:30:06;97602.09;;;5.02;100.00
53719;BME280;39616;48.872;9.390;2024-03-25T06:32:55;97607.97;;;5.09;100.00
53719;BME280;39616;48.872;9.390;2024-03-25T06:35:44;97611.41;;;5.15;100.00
53719;BME280;39616;48.872;9.390;2024-03-25T06:38:14;97602.00;;;5.18;100.00
53719;BME280;39616;48.872;9.390;2024-03-25T06:40:45;97612.78;;;5.13;100.00
53719;BME280;39616;48.872;9.390;2024-03-25T06:43:15;97605.25;;;5.15;100.00
53719;BME280;39616;48.872;9.390;2024-03-25T06:45:46;97609.72;;;5.29;100.00
53719;BME280;39616;48.872;9.390;2024-03-25T06:48:17;97606.91;;;5.50;100.00
53719;BME280;39616;48.872;9.390;2024-03-25T06:50:57;97612.16;;;5.65;100.00
53719;BME280;39616;48.872;9.390;2024-03-25T06:53:28;97610.97;;;5.76;100.00
53719;BME280;39616;48.872;9.390;2024-03-25T06:55:59;97611.91;;;5.96;98.84
53719;BME280;39616;48.872;9.390;2024-03-25T06:58:29;97608.66;;;5.99;94.82
53719;BME280;39616;48.872;9.390;2024-03-25T07:01:07;97609.88;;;6.36;95.73
53719;BME280;39616;48.872;9.390;2024-03-25T07:03:38;97615.97;;;6.46;92.92
53719;BME280;39616;48.872;9.390;2024-03-25T07:06:08;97607.59;;;6.72;92.14
53719;BME280;39616;48.872;9.390;2024-03-25T07:08:39;97604.78;;;6.82;91.13
53719;BME280;39616;48.872;9.390;2024-03-25T07:11:09;97606.81;;;7.09;88.53
53719;BME280;39616;48.872;9.390;2024-03-25T07:13:39;97606.59;;;7.24;86.62
53719;BME280;39616;48.872;9.390;2024-03-25T07:16:10;97619.06;;;7.20;84.95
53719;BME280;39616;48.872;9.390;2024-03-25T07:18:40;97625.31;;;7.54;86.84
53719;BME280;39616;48.872;9.390;2024-03-25T07:21:11;97626.09;;;7.73;83.13
53719;BME280;39616;48.872;9.390;2024-03-25T07:23:41;97627.34;;;7.62;82.24
53719;BME280;39616;48.872;9.390;2024-03-25T07:26:11;97626.97;;;7.68;82.37
53719;BME280;39616;48.872;9.390;2024-03-25T07:28:41;97628.22;;;7.76;83.71
53719;BME280;39616;48.872;9.390;2024-03-25T07:31:12;97625.75;;;7.61;82.01
53719;BME280;39616;48.872;9.390;2024-03-25T07:33:42;97626.44;;;7.15;82.26
53719;BME280;39616;48.872;9.390;2024-03-25T07:36:12;97622.13;;;7.14;82.78
53719;BME280;39616;48.872;9.390;2024-03-25T07:38:43;97617.28;;;7.67;83.41
53719;BME280;39616;48.872;9.390;2024-03-25T07:41:13;97610.31;;;7.99;83.55
53719;BME280;39616;48.872;9.390;2024-03-25T07:43:43;97611.97;;;7.95;80.24
53719;BME280;39616;48.872;9.390;2024-03-25T07:46:14;97608.88;;;8.48;82.33
53719;BME280;39616;48.872;9.390;2024-03-25T07:48:44;97610.41;;;7.75;79.97
53719;BME280;39616;48.872;9.390;2024-03-25T07:51:14;97599.88;;;8.39;78.97
53719;BME280;39616;48.872;9.390;2024-03-25T07:53:45;97599.53;;;8.27;78.18
53719;BME280;39616;48.872;9.390;2024-03-25T07:56:15;97607.72;;;8.08;76.43
53719;BME280;39616;48.872;9.390;2024-03-25T07:58:45;97605.56;;;8.65;77.27
53719;BME280;39616;48.872;9.390;2024-03-25T08:01:16;97611.38;;;8.72;77.85
53719;BME280;39616;48.872;9.390;2024-03-25T08:03:46;97617.13;;;8.24;77.67
53719;BME280;39616;48.872;9.390;2024-03-25T08:06:16;97619.59;;;7.41;77.15
53719;BME280;39616;48.872;9.390;2024-03-25T08:08:47;97620.59;;;7.97;79.08
53719;BME280;39616;48.872;9.390;2024-03-25T08:11:17;97613.81;;;8.13;71.70
53719;BME280;39616;48.872;9.390;2024-03-25T08:13:47;97619.44;;;8.31;73.40
53719;BME280;39616;48.872;9.390;2024-03-25T08:16:18;97616.25;;;8.29;71.96
53719;BME280;39616;48.872;9.390;2024-03-25T08:18:50;97615.31;;;8.19;73.69
53719;BME280;39616;48.872;9.390;2024-03-25T08:21:20;97609.81;;;8.24;73.51
53719;BME280;39616;48.872;9.390;2024-03-25T08:23:50;97610.81;;;8.15;72.77
53719;BME280;39616;48.872;9.390;2024-03-25T08:26:21;97622.00;;;7.75;73.06
53719;BME280;39616;48.872;9.390;2024-03-25T08:28:52;97608.78;;;8.53;73.87
53719;BME280;39616;48.872;9.390;2024-03-25T08:31:22;97605.66;;;9.60;69.75
53719;BME280;39616;48.872;9.390;2024-03-25T08:33:52;97598.81;;;9.17;70.36
53719;BME280;39616;48.872;9.390;2024-03-25T08:36:22;97601.38;;;8.59;66.32
53719;BME280;39616;48.872;9.390;2024-03-25T08:38:53;97598.09;;;8.62;65.65
53719;BME280;39616;48.872;9.390;2024-03-25T08:41:24;97595.41;;;8.98;65.09
53719;BME280;39616;48.872;9.390;2024-03-25T08:43:54;97594.06;;;8.73;65.94
53719;BME280;39616;48.872;9.390;2024-03-25T08:46:24;97594.09;;;9.09;66.39
53719;BME280;39616;48.872;9.390;2024-03-25T08:48:54;97589.00;;;9.08;65.33
53719;BME280;39616;48.872;9.390;2024-03-25T08:51:25;97587.88;;;9.67;63.28
53719;BME280;39616;48.872;9.390;2024-03-25T08:53:55;97586.00;;;9.99;68.23
53719;BME280;39616;48.872;9.390;2024-03-25T08:56:25;97585.53;;;9.52;61.86
53719;BME280;39616;48.872;9.390;2024-03-25T08:58:55;97590.84;;;9.57;62.11
53719;BME280;39616;48.872;9.390;2024-03-25T09:01:27;97587.97;;;9.17;63.64
53719;BME280;39616;48.872;9.390;2024-03-25T09:03:58;97579.31;;;9.74;62.74
53719;BME280;39616;48.872;9.390;2024-03-25T09:06:28;97568.03;;;10.03;61.79
53719;BME280;39616;48.872;9.390;2024-03-25T09:08:59;97575.41;;;9.80;61.78
53719;BME280;39616;48.872;9.390;2024-03-25T09:11:48;97563.00;;;9.88;60.25
53719;BME280;39616;48.872;9.390;2024-03-25T09:14:18;97556.38;;;10.25;61.01
53719;BME280;39616;48.872;9.390;2024-03-25T09:16:48;97560.84;;;10.30;58.88
53719;BME280;39616;48.872;9.390;2024-03-25T09:19:19;97550.97;;;10.34;58.78
53719;BME280;39616;48.872;9.390;2024-03-25T09:21:49;97549.69;;;11.67;53.97
53719;BME280;39616;48.872;9.390;2024-03-25T09:24:19;97538.88;;;12.14;52.29
53719;BME280;39616;48.872;9.390;2024-03-25T09:26:50;97551.16;;;11.47;51.49
53719;BME280;39616;48.872;9.390;2024-03-25T09:29:20;97546.16;;;11.66;56.17
53719;BME280;39616;48.872;9.390;2024-03-25T09:31:50;97554.38;;;10.48;58.90
53719;BME280;39616;48.872;9.390;2024-03-25T09:34:21;97547.47;;;10.33;59.02
53719;BME280;39616;48.872;9.390;2024-03-25T09:36:51;97554.34;;;10.39;58.10
53719;BME280;39616;48.872;9.390;2024-03-25T09:39:21;97546.38;;;10.03;58.57
53719;BME280;39616;48.872;9.390;2024-03-25T09:41:55;97543.72;;;9.89;55.93
53719;BME280;39616;48.872;9.390;2024-03-25T09:44:25;97534.84;;;10.77;55.17
53719;BME280;39616;48.872;9.390;2024-03-25T09:46:56;97537.91;;;11.02;54.39
53719;BME280;39616;48.872;9.390;2024-03-25T09:49:26;97528.97;;;11.01;54.32
53719;BME280;39616;48.872;9.390;2024-03-25T09:51:58;97520.19;;;11.39;55.83
53719;BME280;39616;48.872;9.390;2024-03-25T09:54:28;97511.69;;;12.81;51.06
53719;BME280;39616;48.872;9.390;2024-03-25T09:57:00;97504.59;;;13.64;48.47
53719;BME280;39616;48.872;9.390;2024-03-25T09:59:31;97513.94;;;13.00;49.19
53719;BME280;39616;48.872;9.390;2024-03-25T10:02:02;97507.19;;;13.61;47.33
53719;BME280;39616;48.872;9.390;2024-03-25T10:04:33;97503.66;;;12.26;50.21
53719;BME280;39616;48.872;9.390;2024-03-25T10:07:04;97500.31;;;12.79;49.28
53719;BME280;39616;48.872;9.390;2024-03-25T10:09:34;97502.00;;;13.68;47.74
53719;BME280;39616;48.872;9.390;2024-03-25T10:12:04;97499.19;;;12.30;48.74
53719;BME280;39616;48.872;9.390;2024-03-25T10:14:35;97497.72;;;11.85;48.58
53719;BME280;39616;48.872;9.390;2024-03-25T10:17:06;97495.78;;;12.33;47.26
53719;BME280;39616;48.872;9.390;2024-03-25T10:19:37;97477.41;;;12.80;47.04
53719;BME280;39616;48.872;9.390;2024-03-25T10:22:08;97475.81;;;12.58;48.27
53719;BME280;39616;48.872;9.390;2024-03-25T10:24:44;97465.59;;;13.18;47.98
53719;BME280;39616;48.872;9.390;2024-03-25T10:27:22;97463.75;;;13.10;46.90
53719;BME280;39616;48.872;9.390;2024-03-25T10:29:54;97458.84;;;12.62;48.44
53719;BME280;39616;48.872;9.390;2024-03-25T10:32:27;97460.00;;;11.11;50.67
53719;BME280;39616;48.872;9.390;2024-03-25T10:34:58;97455.72;;;11.10;51.15
53719;BME280;39616;48.872;9.390;2024-03-25T10:37:30;97443.59;;;11.72;49.36
53719;BME280;39616;48.872;9.390;2024-03-25T10:40:01;97442.38;;;11.52;50.65
53719;BME280;39616;48.872;9.390;2024-03-25T10:42:34;97439.25;;;11.88;49.64
53719;BME280;39616;48.872;9.390;2024-03-25T10:45:08;97431.44;;;12.16;47.52
53719;BME280;39616;48.872;9.390;2024-03-25T10:47:40;97433.75;;;11.58;48.56
53719;BME280;39616;48.872;9.390;2024-03-25T10:50:12;97437.88;;;11.56;48.85
53719;BME280;39616;48.872;9.390;2024-03-25T10:52:46;97448.03;;;10.51;50.94
53719;BME280;39616;48.872;9.390;2024-03-25T10:55:17;97444.53;;;11.11;50.37
53719;BME280;39616;48.872;9.390;2024-03-25T10:57:48;97427.00;;;12.83;50.40
53719;BME280;39616;48.872;9.390;2024-03-25T11:00:19;97432.22;;;12.46;46.57
53719;BME280;39616;48.872;9.390;2024-03-25T11:02:50;97427.84;;;12.54;46.75
53719;BME280;39616;48.872;9.390;2024-03-25T11:05:21;97423.91;;;13.26;48.69
53719;BME280;39616;48.872;9.390;2024-03-25T11:07:51;97426.63;;;13.60;50.51
53719;BME280;39616;48.872;9.390;2024-03-25T11:10:29;97423.13;;;13.26;48.85
53719;BME280;39616;48.872;9.390;2024-03-25T11:13:00;97424.75;;;11.75;49.67
53719;BME280;39616;48.872;9.390;2024-03-25T11:15:36;97427.50;;;10.02;53.13
53719;BME280;39616;48.872;9.390;2024-03-25T11:18:11;97429.22;;;9.89;53.91
53719;BME280;39616;48.872;9.390;2024-03-25T11:20:42;97421.88;;;9.89;54.93
53719;BME280;39616;48.872;9.390;2024-03-25T11:23:13;97418.72;;;9.56;55.39
53719;BME280;39616;48.872;9.390;2024-03-25T11:25:54;97413.44;;;9.51;57.13
53719;BME280;39616;48.872;9.390;2024-03-25T11:28:29;97403.72;;;9.90;54.34
53719;BME280;39616;48.872;9.390;2024-03-25T11:30:59;97399.94;;;10.00;52.47
53719;BME280;39616;48.872;9.390;2024-03-25T11:33:30;97398.88;;;9.38;52.99
53719;BME280;39616;48.872;9.390;2024-03-25T11:36:00;97404.72;;;9.54;56.63
53719;BME280;39616;48.872;9.390;2024-03-25T11:38:30;97397.16;;;9.74;54.81
53719;BME280;39616;48.872;9.390;2024-03-25T11:41:01;97389.03;;;9.82;53.15
53719;BME280;39616;48.872;9.390;2024-03-25T11:43:32;97372.94;;;10.52;52.26
53719;BME280;39616;48.872;9.390;2024-03-25T11:46:03;97371.59;;;10.23;53.11
53719;BME280;39616;48.872;9.390;2024-03-25T11:48:33;97374.53;;;10.35;51.71
53719;BME280;39616;48.872;9.390;2024-03-25T11:51:04;97359.50;;;10.99;52.73
53719;BME280;39616;48.872;9.390;2024-03-25T11:53:34;97353.41;;;11.10;51.80
53719;BME280;39616;48.872;9.390;2024-03-25T11:56:05;97349.28;;;10.96;52.05
53719;BME280;39616;48.872;9.390;2024-03-25T11:58:35;97355.88;;;10.34;52.06
53719;BME280;39616;48.872;9.390;2024-03-25T12:01:06;97345.47;;;10.10;52.00
53719;BME280;39616;48.872;9.390;2024-03-25T12:03:39;97345.25;;;9.80;51.97
53719;BME280;39616;48.872;9.390;2024-03-25T12:06:09;97339.84;;;9.80;51.78
53719;BME280;39616;48.872;9.390;2024-03-25T12:08:39;97337.47;;;9.96;52.90
53719;BME280;39616;48.872;9.390;2024-03-25T12:11:30;97329.34;;;9.96;52.68
53719;BME280;39616;48.872;9.390;2024-03-25T12:14:00;97323.13;;;9.96;52.72
53719;BME280;39616;48.872;9.390;2024-03-25T12:16:31;97314.53;;;10.20;51.62
53719;BME280;39616;48.872;9.390;2024-03-25T12:19:02;97306.13;;;10.47;49.92
53719;BME280;39616;48.872;9.390;2024-03-25T12:21:32;97303.59;;;10.33;50.20
53719;BME280;39616;48.872;9.390;2024-03-25T12:24:02;97296.25;;;10.25;49.94
53719;BME280;39616;48.872;9.390;2024-03-25T12:26:33;97294.00;;;10.19;50.28
53719;BME280;39616;48.872;9.390;2024-03-25T12:29:05;97279.19;;;10.51;50.63
53719;BME280;39616;48.872;9.390;2024-03-25T12:31:35;97282.66;;;10.60;48.75
53719;BME280;39616;48.872;9.390;2024-03-25T12:34:12;97274.53;;;11.16;48.79
53719;BME280;39616;48.872;9.390;2024-03-25T12:36:43;97265.75;;;11.19;48.67
53719;BME280;39616;48.872;9.390;2024-03-25T12:39:20;97262.69;;;10.91;48.70
53719;BME280;39616;48.872;9.390;2024-03-25T12:41:50;97254.00;;;11.06;48.31
53719;BME280;39616;48.872;9.390;2024-03-25T12:44:21;97252.50;;;10.79;48.42
53719;BME280;39616;48.872;9.390;2024-03-25T12:46:51;97242.25;;;10.84;48.07
53719;BME280;39616;48.872;9.390;2024-03-25T12:49:21;97237.88;;;10.54;47.92
53719;BME280;39616;48.872;9.390;2024-03-25T12:51:52;97248.25;;;10.52;48.33
53719;BME280;39616;48.872;9.390;2024-03-25T12:54:22;97236.47;;;10.48;49.93
53719;BME280;39616;48.872;9.390;2024-03-25T12:56:52;97232.00;;;10.43;50.26
53719;BME280;39616;48.872;9.390;2024-03-25T12:59:23;97215.34;;;10.71;51.36
53719;BME280;39616;48.872;9.390;2024-03-25T13:01:53;97209.72;;;10.84;50.54
53719;BME280;39616;48.872;9.390;2024-03-25T13:04:24;97205.81;;;11.03;49.65
53719;BME280;39616;48.872;9.390;2024-03-25T13:06:54;97195.34;;;11.22;48.49
53719;BME280;39616;48.872;9.390;2024-03-25T13:09:25;97187.63;;;11.33;49.31
53719;BME280;39616;48.872;9.390;2024-03-25T13:11:56;97184.09;;;12.04;48.09
53719;BME280;39616;48.872;9.390;2024-03-25T13:14:27;97179.00;;;12.02;45.15
53719;BME280;39616;48.872;9.390;2024-03-25T13:16:57;97180.31;;;12.29;44.09
53719;BME280;39616;48.872;9.390;2024-03-25T13:19:27;97176.69;;;12.25;44.02
53719;BME280;39616;48.872;9.390;2024-03-25T13:21:58;97172.81;;;12.14;44.08